createdAt,value
2018-11-23T00:00:11.959Z,1012.94
2018-11-23T00:01:11.979Z,1012.94
2018-11-23T00:02:12.001Z,1012.96
2018-11-23T00:03:12.023Z,1012.99
2018-11-23T00:04:12.047Z,1012.95
2018-11-23T00:05:12.073Z,1012.95
2018-11-23T00:06:12.090Z,1012.95
2018-11-23T00:07:12.112Z,1012.98
2018-11-23T00:08:12.134Z,1012.98
2018-11-23T00:09:12.157Z,1012.98
2018-11-23T00:10:12.179Z,1013.01
2018-11-23T00:11:12.200Z,1013.00
2018-11-23T00:12:12.223Z,1013.08
2018-11-23T00:13:12.246Z,1013.03
2018-11-23T00:14:12.267Z,1013.12
2018-11-23T00:15:12.290Z,1013.08
2018-11-23T00:16:12.312Z,1013.07
2018-11-23T00:17:12.334Z,1013.07
2018-11-23T00:18:12.357Z,1013.10
2018-11-23T00:19:12.380Z,1013.11
2018-11-23T00:20:12.401Z,1013.09
2018-11-23T00:21:12.426Z,1013.13
2018-11-23T00:22:12.445Z,1013.08
2018-11-23T00:23:12.468Z,1013.18
2018-11-23T00:24:12.490Z,1013.17
2018-11-23T00:25:12.513Z,1013.14
2018-11-23T00:26:12.533Z,1013.17
2018-11-23T00:27:12.556Z,1013.14
2018-11-23T00:28:12.582Z,1013.15
2018-11-23T00:29:12.600Z,1013.16
2018-11-23T00:30:12.622Z,1013.17
2018-11-23T00:31:12.643Z,1013.14
2018-11-23T00:32:12.666Z,1013.22
2018-11-23T00:33:12.689Z,1013.25
2018-11-23T00:34:12.714Z,1013.26
2018-11-23T00:35:12.733Z,1013.30
2018-11-23T00:36:12.755Z,1013.28
2018-11-23T00:37:12.778Z,1013.26
2018-11-23T00:38:12.799Z,1013.26
2018-11-23T00:39:12.820Z,1013.27
2018-11-23T00:40:12.844Z,1013.25
2018-11-23T00:41:12.867Z,1013.28
2018-11-23T00:42:12.886Z,1013.24
2018-11-23T00:43:12.909Z,1013.29
2018-11-23T00:44:12.934Z,1013.30
2018-11-23T00:45:12.954Z,1013.29
2018-11-23T00:46:12.978Z,1013.32
2018-11-23T00:47:12.998Z,1013.29
2018-11-23T00:48:13.020Z,1013.36
2018-11-23T00:49:13.042Z,1013.26
2018-11-23T00:50:13.064Z,1013.29
2018-11-23T00:51:13.086Z,1013.32
2018-11-23T00:52:13.108Z,1013.32
2018-11-23T00:53:13.130Z,1013.31
2018-11-23T00:54:13.154Z,1013.31
2018-11-23T00:55:13.176Z,1013.30
2018-11-23T00:56:13.196Z,1013.30
2018-11-23T00:57:13.219Z,1013.29
2018-11-23T00:58:13.240Z,1013.28
2018-11-23T00:59:13.262Z,1013.32
2018-11-23T01:00:13.285Z,1013.35
2018-11-23T01:01:13.307Z,1013.32
2018-11-23T01:02:13.329Z,1013.27
2018-11-23T01:03:13.350Z,1013.28
2018-11-23T01:04:13.372Z,1013.28
2018-11-23T01:05:13.401Z,1013.31
2018-11-23T01:06:13.416Z,1013.29
2018-11-23T01:07:13.438Z,1013.28
2018-11-23T01:08:13.461Z,1013.26
2018-11-23T01:09:13.486Z,1013.32
2018-11-23T01:10:13.504Z,1013.27
2018-11-23T01:11:13.528Z,1013.29
2018-11-23T01:12:13.550Z,1013.24
2018-11-23T01:13:13.572Z,1013.35
2018-11-23T01:14:13.593Z,1013.24
2018-11-23T01:15:13.616Z,1013.27
2018-11-23T01:16:13.637Z,1013.22
2018-11-23T01:17:13.660Z,1013.26
2018-11-23T01:18:13.681Z,1013.22
2018-11-23T01:19:13.704Z,1013.28
2018-11-23T01:20:13.726Z,1013.24
2018-11-23T01:21:13.752Z,1013.28
2018-11-23T01:22:13.772Z,1013.25
2018-11-23T01:23:13.794Z,1013.28
2018-11-23T01:24:13.816Z,1013.22
2018-11-23T01:25:13.840Z,1013.23
2018-11-23T01:26:13.858Z,1013.25
2018-11-23T01:27:13.884Z,1013.25
2018-11-23T01:28:13.903Z,1013.27
2018-11-23T01:29:13.926Z,1013.30
2018-11-23T01:30:13.951Z,1013.28
2018-11-23T01:31:13.970Z,1013.32
2018-11-23T01:32:13.995Z,1013.33
2018-11-23T01:33:14.015Z,1013.31
2018-11-23T01:34:14.038Z,1013.28
2018-11-23T01:35:14.060Z,1013.31
2018-11-23T01:36:14.081Z,1013.26
2018-11-23T01:37:14.104Z,1013.26
2018-11-23T01:38:14.126Z,1013.24
2018-11-23T01:39:14.148Z,1013.24
2018-11-23T01:40:14.170Z,1013.29
2018-11-23T01:41:14.195Z,1013.22
2018-11-23T01:42:14.214Z,1013.23
2018-11-23T01:43:14.238Z,1013.27
2018-11-23T01:44:14.261Z,1013.25
2018-11-23T01:45:14.282Z,1013.27
2018-11-23T01:46:14.303Z,1013.22
2018-11-23T01:47:14.326Z,1013.22
2018-11-23T01:48:14.348Z,1013.21
2018-11-23T01:49:14.370Z,1013.17
2018-11-23T01:50:14.395Z,1013.21
2018-11-23T01:51:14.415Z,1013.24
2018-11-23T01:52:14.437Z,1013.23
2018-11-23T01:53:14.460Z,1013.27
2018-11-23T01:54:14.482Z,1013.22
2018-11-23T01:55:14.512Z,1013.18
2018-11-23T01:56:14.528Z,1013.18
2018-11-23T01:57:14.549Z,1013.19
2018-11-23T01:58:14.571Z,1013.22
2018-11-23T01:59:14.593Z,1013.20
2018-11-23T02:00:14.617Z,1013.17
2018-11-23T02:01:14.638Z,1013.20
2018-11-23T02:02:14.660Z,1013.19
2018-11-23T02:03:14.682Z,1013.17
2018-11-23T02:04:14.705Z,1013.19
2018-11-23T02:05:14.726Z,1013.15
2018-11-23T02:06:14.749Z,1013.17
2018-11-23T02:07:14.775Z,1013.12
2018-11-23T02:08:14.793Z,1013.12
2018-11-23T02:09:14.816Z,1013.10
2018-11-23T02:10:14.838Z,1013.12
2018-11-23T02:11:14.861Z,1013.11
2018-11-23T02:12:14.884Z,1013.10
2018-11-23T02:13:14.906Z,1013.13
2018-11-23T02:14:14.927Z,1013.13
2018-11-23T02:15:14.950Z,1013.11
2018-11-23T02:16:14.972Z,1013.13
2018-11-23T02:17:14.996Z,1013.09
2018-11-23T02:18:15.016Z,1013.11
2018-11-23T02:19:15.040Z,1013.06
2018-11-23T02:20:15.061Z,1013.04
2018-11-23T02:21:15.083Z,1013.05
2018-11-23T02:22:15.107Z,1013.11
2018-11-23T02:23:15.129Z,1013.03
2018-11-23T02:24:15.153Z,1013.06
2018-11-23T02:25:15.172Z,1013.05
2018-11-23T02:26:15.194Z,1013.05
2018-11-23T02:27:15.219Z,1012.98
2018-11-23T02:28:15.239Z,1013.00
2018-11-23T02:29:15.261Z,1013.00
2018-11-23T02:30:15.286Z,1012.99
2018-11-23T02:31:15.305Z,1012.99
2018-11-23T02:32:15.328Z,1012.96
2018-11-23T02:33:15.352Z,1012.97
2018-11-23T02:34:15.374Z,1012.97
2018-11-23T02:35:15.396Z,1013.00
2018-11-23T02:36:15.417Z,1013.00
2018-11-23T02:37:15.439Z,1013.00
2018-11-23T02:38:15.460Z,1012.95
2018-11-23T02:39:15.483Z,1012.94
2018-11-23T02:40:15.508Z,1012.94
2018-11-23T02:41:15.529Z,1012.95
2018-11-23T02:42:15.549Z,1012.93
2018-11-23T02:43:15.571Z,1012.92
2018-11-23T02:44:15.593Z,1012.96
2018-11-23T02:45:15.618Z,1013.00
2018-11-23T02:46:15.639Z,1012.92
2018-11-23T02:47:15.660Z,1012.91
2018-11-23T02:48:15.682Z,1012.99
2018-11-23T02:49:15.704Z,1012.97
2018-11-23T02:50:15.729Z,1012.98
2018-11-23T02:51:15.749Z,1012.93
2018-11-23T02:52:15.770Z,1012.98
2018-11-23T02:53:15.793Z,1012.97
2018-11-23T02:54:15.816Z,1012.95
2018-11-23T02:55:15.839Z,1012.91
2018-11-23T02:56:15.859Z,1012.91
2018-11-23T02:57:15.881Z,1012.87
2018-11-23T02:58:15.902Z,1012.92
2018-11-23T02:59:15.924Z,1012.91
2018-11-23T03:00:15.949Z,1012.89
2018-11-23T03:01:15.969Z,1012.90
2018-11-23T03:02:15.990Z,1012.85
2018-11-23T03:03:16.012Z,1012.87
2018-11-23T03:04:16.034Z,1012.87
2018-11-23T03:05:16.056Z,1012.86
2018-11-23T03:06:16.078Z,1012.80
2018-11-23T03:07:16.100Z,1012.85
2018-11-23T03:08:16.122Z,1012.80
2018-11-23T03:09:16.145Z,1012.88
2018-11-23T03:10:16.168Z,1012.83
2018-11-23T03:11:16.188Z,1012.80
2018-11-23T03:12:16.210Z,1012.84
2018-11-23T03:13:16.232Z,1012.83
2018-11-23T03:14:16.253Z,1012.78
2018-11-23T03:15:16.275Z,1012.79
2018-11-23T03:16:16.297Z,1012.80
2018-11-23T03:17:16.321Z,1012.77
2018-11-23T03:18:16.340Z,1012.82
2018-11-23T03:19:16.367Z,1012.79
2018-11-23T03:20:16.386Z,1012.80
2018-11-23T03:21:16.406Z,1012.80
2018-11-23T03:22:16.429Z,1012.78
2018-11-23T03:23:16.451Z,1012.72
2018-11-23T03:24:16.472Z,1012.75
2018-11-23T03:25:16.501Z,1012.72
2018-11-23T03:26:16.515Z,1012.73
2018-11-23T03:27:16.538Z,1012.70
2018-11-23T03:28:16.562Z,1012.69
2018-11-23T03:29:16.583Z,1012.66
2018-11-23T03:30:16.607Z,1012.72
2018-11-23T03:31:16.625Z,1012.66
2018-11-23T03:32:16.648Z,1012.65
2018-11-23T03:33:16.669Z,1012.71
2018-11-23T03:34:16.692Z,1012.69
2018-11-23T03:35:16.712Z,1012.68
2018-11-23T03:36:16.739Z,1012.77
2018-11-23T03:37:16.760Z,1012.72
2018-11-23T03:38:16.783Z,1012.73
2018-11-23T03:39:16.800Z,1012.79
2018-11-23T03:40:16.822Z,1012.79
2018-11-23T03:41:16.845Z,1012.75
2018-11-23T03:42:16.865Z,1012.85
2018-11-23T03:43:16.890Z,1012.80
2018-11-23T03:44:16.911Z,1012.78
2018-11-23T03:45:16.931Z,1012.87
2018-11-23T03:46:16.954Z,1012.84
2018-11-23T03:47:16.973Z,1012.87
2018-11-23T03:48:16.996Z,1012.85
2018-11-23T03:49:17.021Z,1012.85
2018-11-23T03:50:17.039Z,1012.90
2018-11-23T03:51:17.062Z,1012.88
2018-11-23T03:52:17.086Z,1012.90
2018-11-23T03:53:17.106Z,1012.88
2018-11-23T03:54:17.131Z,1012.93
2018-11-23T03:55:17.149Z,1012.88
2018-11-23T03:56:17.172Z,1012.83
2018-11-23T03:57:17.195Z,1012.80
2018-11-23T03:58:17.213Z,1012.84
2018-11-23T03:59:17.237Z,1012.84
2018-11-23T04:00:17.762Z,1012.83
2018-11-23T04:01:17.280Z,1012.82
2018-11-23T04:02:17.301Z,1012.79
2018-11-23T04:03:17.323Z,1012.86
2018-11-23T04:04:17.344Z,1012.86
2018-11-23T04:05:17.367Z,1012.79
2018-11-23T04:06:17.388Z,1012.80
2018-11-23T04:07:17.412Z,1012.82
2018-11-23T04:08:17.433Z,1012.81
2018-11-23T04:09:17.453Z,1012.86
2018-11-23T04:10:17.475Z,1012.79
2018-11-23T04:11:17.496Z,1012.80
2018-11-23T04:12:17.518Z,1012.80
2018-11-23T04:13:17.541Z,1012.79
2018-11-23T04:14:17.560Z,1012.82
2018-11-23T04:15:17.588Z,1012.80
2018-11-23T04:16:17.606Z,1012.83
2018-11-23T04:17:17.630Z,1012.78
2018-11-23T04:18:17.648Z,1012.79
2018-11-23T04:19:17.669Z,1012.81
2018-11-23T04:20:17.693Z,1012.80
2018-11-23T04:21:17.713Z,1012.78
2018-11-23T04:22:17.740Z,1012.86
2018-11-23T04:23:17.756Z,1012.79
2018-11-23T04:24:17.778Z,1012.76
2018-11-23T04:25:17.801Z,1012.82
2018-11-23T04:26:24.478Z,1012.79
2018-11-23T04:27:17.843Z,1012.81
2018-11-23T04:28:17.866Z,1012.83
2018-11-23T04:29:17.889Z,1012.79
2018-11-23T04:30:17.907Z,1012.78
2018-11-23T04:31:17.936Z,1012.79
2018-11-23T04:32:17.951Z,1012.77
2018-11-23T04:33:17.973Z,1012.79
2018-11-23T04:34:17.995Z,1012.79
2018-11-23T04:35:18.016Z,1012.79
2018-11-23T04:36:18.042Z,1012.79
2018-11-23T04:37:18.061Z,1012.82
2018-11-23T04:38:18.081Z,1012.82
2018-11-23T04:39:18.103Z,1012.73
2018-11-23T04:40:18.125Z,1012.77
2018-11-23T04:41:18.148Z,1012.74
2018-11-23T04:42:18.167Z,1012.78
2018-11-23T04:43:18.190Z,1012.77
2018-11-23T04:44:18.212Z,1012.83
2018-11-23T04:45:18.235Z,1012.77
2018-11-23T04:46:18.255Z,1012.81
2018-11-23T04:47:18.280Z,1012.77
2018-11-23T04:48:18.298Z,1012.73
2018-11-23T04:49:18.321Z,1012.77
2018-11-23T04:50:18.342Z,1012.76
2018-11-23T04:51:18.366Z,1012.70
2018-11-23T04:52:18.386Z,1012.76
2018-11-23T04:53:18.407Z,1012.76
2018-11-23T04:54:18.428Z,1012.76
2018-11-23T04:55:18.451Z,1012.76
2018-11-23T04:56:18.472Z,1012.77
2018-11-23T04:57:18.494Z,1012.73
2018-11-23T04:58:18.515Z,1012.76
2018-11-23T04:59:18.544Z,1012.72
2018-11-23T05:00:18.560Z,1012.69
2018-11-23T05:01:18.580Z,1012.72
2018-11-23T05:02:18.601Z,1012.73
2018-11-23T05:03:18.623Z,1012.71
2018-11-23T05:04:18.645Z,1012.71
2018-11-23T05:05:18.667Z,1012.72
2018-11-23T05:06:18.688Z,1012.67
2018-11-23T05:07:18.712Z,1012.67
2018-11-23T05:08:18.733Z,1012.68
2018-11-23T05:09:18.754Z,1012.66
2018-11-23T05:10:18.775Z,1012.70
2018-11-23T05:11:18.797Z,1012.62
2018-11-23T05:12:18.819Z,1012.68
2018-11-23T05:13:18.840Z,1012.63
2018-11-23T05:14:18.863Z,1012.63
2018-11-23T05:15:18.883Z,1012.66
2018-11-23T05:16:18.906Z,1012.65
2018-11-23T05:17:18.927Z,1012.64
2018-11-23T05:18:18.948Z,1012.62
2018-11-23T05:19:18.970Z,1012.62
2018-11-23T05:20:18.994Z,1012.63
2018-11-23T05:21:19.015Z,1012.71
2018-11-23T05:22:19.038Z,1012.68
2018-11-23T05:23:19.058Z,1012.70
2018-11-23T05:24:19.078Z,1012.66
2018-11-23T05:25:19.100Z,1012.68
2018-11-23T05:26:19.121Z,1012.67
2018-11-23T05:27:19.146Z,1012.61
2018-11-23T05:28:19.164Z,1012.63
2018-11-23T05:29:19.187Z,1012.54
2018-11-23T05:30:19.207Z,1012.54
2018-11-23T05:31:19.230Z,1012.54
2018-11-23T05:32:19.290Z,1012.51
2018-11-23T05:33:19.275Z,1012.52
2018-11-23T05:34:19.293Z,1012.52
2018-11-23T05:35:19.316Z,1012.56
2018-11-23T05:36:19.364Z,1012.49
2018-11-23T05:37:19.360Z,1012.48
2018-11-23T05:38:19.381Z,1012.50
2018-11-23T05:39:19.401Z,1012.50
2018-11-23T05:40:19.423Z,1012.52
2018-11-23T05:41:19.445Z,1012.47
2018-11-23T05:42:19.466Z,1012.49
2018-11-23T05:43:19.487Z,1012.47
2018-11-23T05:44:19.510Z,1012.47
2018-11-23T05:45:19.531Z,1012.49
2018-11-23T05:46:19.552Z,1012.45
2018-11-23T05:47:19.573Z,1012.49
2018-11-23T05:48:22.943Z,1012.47
2018-11-23T05:49:19.618Z,1012.46
2018-11-23T05:50:19.638Z,1012.43
2018-11-23T05:51:19.659Z,1012.49
2018-11-23T05:52:19.683Z,1012.46
2018-11-23T05:53:19.702Z,1012.51
2018-11-23T05:54:19.726Z,1012.49
2018-11-23T05:55:19.748Z,1012.46
2018-11-23T05:56:19.767Z,1012.49
2018-11-23T05:57:19.789Z,1012.50
2018-11-23T05:58:19.810Z,1012.50
2018-11-23T05:59:19.835Z,1012.50
2018-11-23T06:00:19.853Z,1012.50
2018-11-23T06:01:19.875Z,1012.47
2018-11-23T06:02:19.896Z,1012.52
2018-11-23T06:03:19.918Z,1012.50
2018-11-23T06:04:19.939Z,1012.49
2018-11-23T06:05:19.961Z,1012.50
2018-11-23T06:06:19.981Z,1012.52
2018-11-23T06:07:20.004Z,1012.47
2018-11-23T06:08:20.025Z,1012.49
2018-11-23T06:09:20.048Z,1012.52
2018-11-23T06:10:20.070Z,1012.46
2018-11-23T06:11:20.091Z,1012.43
2018-11-23T06:12:20.212Z,1012.49
2018-11-23T06:13:20.234Z,1012.47
2018-11-23T06:14:20.205Z,1012.50
2018-11-23T06:15:20.176Z,1012.50
2018-11-23T06:16:20.199Z,1012.44
2018-11-23T06:17:20.219Z,1012.47
2018-11-23T06:18:20.240Z,1012.50
2018-11-23T06:19:20.261Z,1012.45
2018-11-23T06:20:20.283Z,1012.41
2018-11-23T06:21:20.305Z,1012.46
2018-11-23T06:22:20.325Z,1012.38
2018-11-23T06:23:20.348Z,1012.43
2018-11-23T06:24:20.369Z,1012.42
2018-11-23T06:25:20.394Z,1012.38
2018-11-23T06:26:20.411Z,1012.41
2018-11-23T06:27:20.433Z,1012.35
2018-11-23T06:28:20.455Z,1012.39
2018-11-23T06:29:20.476Z,1012.36
2018-11-23T06:30:20.497Z,1012.39
2018-11-23T06:31:20.519Z,1012.42
2018-11-23T06:32:20.541Z,1012.42
2018-11-23T06:33:20.564Z,1012.48
2018-11-23T06:34:20.585Z,1012.44
2018-11-23T06:35:20.607Z,1012.46
2018-11-23T06:36:20.627Z,1012.50
2018-11-23T06:37:20.649Z,1012.48
2018-11-23T06:38:20.668Z,1012.52
2018-11-23T06:39:20.690Z,1012.47
2018-11-23T06:40:20.711Z,1012.50
2018-11-23T06:41:20.733Z,1012.49
2018-11-23T06:42:20.755Z,1012.45
2018-11-23T06:43:20.777Z,1012.47
2018-11-23T06:44:20.799Z,1012.47
2018-11-23T06:45:20.818Z,1012.49
2018-11-23T06:46:20.840Z,1012.54
2018-11-23T06:47:20.862Z,1012.51
2018-11-23T06:48:20.885Z,1012.52
2018-11-23T06:49:20.905Z,1012.53
2018-11-23T06:50:20.926Z,1012.52
2018-11-23T06:51:20.947Z,1012.57
2018-11-23T06:52:20.968Z,1012.56
2018-11-23T06:53:20.995Z,1012.59
2018-11-23T06:54:21.011Z,1012.58
2018-11-23T06:55:21.034Z,1012.60
2018-11-23T06:56:21.054Z,1012.60
2018-11-23T06:57:21.080Z,1012.58
2018-11-23T06:58:21.100Z,1012.63
2018-11-23T06:59:21.118Z,1012.60
2018-11-23T07:00:21.140Z,1012.61
2018-11-23T07:01:21.162Z,1012.58
2018-11-23T07:02:21.182Z,1012.56
2018-11-23T07:03:21.204Z,1012.60
2018-11-23T07:04:21.226Z,1012.59
2018-11-23T07:05:21.248Z,1012.58
2018-11-23T07:06:21.268Z,1012.59
2018-11-23T07:07:21.289Z,1012.61
2018-11-23T07:08:21.313Z,1012.62
2018-11-23T07:09:21.333Z,1012.61
2018-11-23T07:10:21.354Z,1012.56
2018-11-23T07:11:21.375Z,1012.57
2018-11-23T07:12:21.396Z,1012.61
2018-11-23T07:13:21.419Z,1012.60
2018-11-23T07:14:21.439Z,1012.58
2018-11-23T07:15:21.465Z,1012.60
2018-11-23T07:16:21.483Z,1012.60
2018-11-23T07:17:21.504Z,1012.63
2018-11-23T07:18:21.525Z,1012.65
2018-11-23T07:19:21.547Z,1012.58
2018-11-23T07:20:21.568Z,1012.60
2018-11-23T07:21:21.672Z,1012.60
2018-11-23T07:22:21.611Z,1012.57
2018-11-23T07:23:21.632Z,1012.59
2018-11-23T07:24:21.658Z,1012.62
2018-11-23T07:25:21.675Z,1012.63
2018-11-23T07:26:21.696Z,1012.61
2018-11-23T07:27:21.718Z,1012.63
2018-11-23T07:28:21.742Z,1012.57
2018-11-23T07:29:21.761Z,1012.63
2018-11-23T07:30:21.788Z,1012.59
2018-11-23T07:31:21.808Z,1012.58
2018-11-23T07:32:21.826Z,1012.56
2018-11-23T07:33:21.852Z,1012.60
2018-11-23T07:34:22.882Z,1012.58
2018-11-23T07:35:21.899Z,1012.61
2018-11-23T07:36:21.910Z,1012.64
2018-11-23T07:37:21.934Z,1012.62
2018-11-23T07:38:21.953Z,1012.60
2018-11-23T07:39:21.975Z,1012.62
2018-11-23T07:40:21.996Z,1012.64
2018-11-23T07:41:22.018Z,1012.65
2018-11-23T07:42:22.039Z,1012.63
2018-11-23T07:43:22.061Z,1012.62
2018-11-23T07:44:22.083Z,1012.64
2018-11-23T07:45:22.104Z,1012.63
2018-11-23T07:46:22.125Z,1012.71
2018-11-23T07:47:22.146Z,1012.61
2018-11-23T07:48:22.268Z,1012.72
2018-11-23T07:49:22.189Z,1012.70
2018-11-23T07:50:22.214Z,1012.68
2018-11-23T07:51:22.232Z,1012.68
2018-11-23T07:52:22.254Z,1012.69
2018-11-23T07:53:22.275Z,1012.70
2018-11-23T07:54:22.296Z,1012.68
2018-11-23T07:55:22.318Z,1012.65
2018-11-23T07:56:22.342Z,1012.70
2018-11-23T07:57:22.361Z,1012.67
2018-11-23T07:58:22.382Z,1012.64
2018-11-23T07:59:22.404Z,1012.63
2018-11-23T08:00:22.431Z,1012.65
2018-11-23T08:01:22.449Z,1012.63
2018-11-23T08:02:22.468Z,1012.67
2018-11-23T08:03:22.491Z,1012.62
2018-11-23T08:04:22.517Z,1012.66
2018-11-23T08:05:22.534Z,1012.66
2018-11-23T08:06:22.558Z,1012.63
2018-11-23T08:07:22.578Z,1012.65
2018-11-23T08:08:22.600Z,1012.65
2018-11-23T08:09:22.622Z,1012.66
2018-11-23T08:10:22.649Z,1012.65
2018-11-23T08:11:22.666Z,1012.61
2018-11-23T08:12:22.686Z,1012.67
2018-11-23T08:13:22.707Z,1012.68
2018-11-23T08:14:22.728Z,1012.66
2018-11-23T08:15:22.749Z,1012.72
2018-11-23T08:16:22.771Z,1012.63
2018-11-23T08:17:22.794Z,1012.61
2018-11-23T08:18:22.814Z,1012.62
2018-11-23T08:19:22.836Z,1012.61
2018-11-23T08:20:22.859Z,1012.65
2018-11-23T08:21:22.884Z,1012.63
2018-11-23T08:22:22.901Z,1012.65
2018-11-23T08:23:22.926Z,1012.66
2018-11-23T08:24:22.948Z,1012.63
2018-11-23T08:25:22.973Z,1012.60
2018-11-23T08:26:22.991Z,1012.63
2018-11-23T08:27:23.014Z,1012.61
2018-11-23T08:28:23.032Z,1012.59
2018-11-23T08:29:23.055Z,1012.58
2018-11-23T08:30:23.083Z,1012.54
2018-11-23T08:31:23.097Z,1012.54
2018-11-23T08:32:23.120Z,1012.54
2018-11-23T08:33:23.141Z,1012.52
2018-11-23T08:34:23.163Z,1012.59
2018-11-23T08:35:23.185Z,1012.48
2018-11-23T08:36:23.206Z,1012.49
2018-11-23T08:37:23.229Z,1012.39
2018-11-23T08:38:23.253Z,1012.36
2018-11-23T08:39:23.272Z,1012.44
2018-11-23T08:40:23.294Z,1012.42
2018-11-23T08:41:23.316Z,1012.51
2018-11-23T08:42:23.362Z,1012.53
2018-11-23T08:43:23.362Z,1012.55
2018-11-23T08:44:23.382Z,1012.56
2018-11-23T08:45:23.412Z,1012.55
2018-11-23T08:46:23.427Z,1012.57
2018-11-23T08:47:23.492Z,1012.64
2018-11-23T08:48:23.471Z,1012.70
2018-11-23T08:49:23.492Z,1012.67
2018-11-23T08:50:23.513Z,1012.72
2018-11-23T08:51:23.535Z,1012.71
2018-11-23T08:52:23.558Z,1012.92
2018-11-23T08:53:27.888Z,1012.96
2018-11-23T08:54:23.601Z,1012.89
2018-11-23T08:55:23.627Z,1012.89
2018-11-23T08:56:23.649Z,1012.84
2018-11-23T08:57:23.670Z,1012.73
2018-11-23T08:58:23.692Z,1012.74
2018-11-23T08:59:23.717Z,1012.71
2018-11-23T09:00:23.739Z,1012.73
2018-11-23T09:01:23.763Z,1012.78
2018-11-23T09:02:23.788Z,1012.72
2018-11-23T09:03:23.819Z,1012.75
2018-11-23T09:04:23.836Z,1012.78
2018-11-23T09:05:23.861Z,1012.78
2018-11-23T09:06:23.887Z,1012.80
2018-11-23T09:07:23.912Z,1012.67
2018-11-23T09:08:23.939Z,1012.75
2018-11-23T09:09:23.965Z,1012.72
2018-11-23T09:10:23.990Z,1012.72
2018-11-23T09:11:24.018Z,1012.74
2018-11-23T09:12:24.045Z,1012.70
2018-11-23T09:13:24.073Z,1012.73
2018-11-23T09:14:24.098Z,1012.72
2018-11-23T09:15:24.126Z,1012.73
2018-11-23T09:16:24.155Z,1012.73
2018-11-23T09:17:24.182Z,1012.70
2018-11-23T09:18:24.217Z,1012.62
2018-11-23T09:19:24.239Z,1012.62
2018-11-23T09:20:24.312Z,1012.60
2018-11-23T09:21:24.297Z,1012.66
2018-11-23T09:22:24.324Z,1012.62
2018-11-23T09:23:24.352Z,1012.52
2018-11-23T09:24:24.381Z,1012.54
2018-11-23T09:25:24.410Z,1012.52
2018-11-23T09:26:24.441Z,1012.51
2018-11-23T09:27:24.470Z,1012.53
2018-11-23T09:29:12.063Z,1012.56
2018-11-23T09:30:12.092Z,1012.59
2018-11-23T09:31:12.121Z,1012.66
2018-11-23T09:32:12.252Z,1012.67
2018-11-23T09:33:12.184Z,1012.71
2018-11-23T09:34:12.213Z,1012.72
2018-11-23T09:35:12.246Z,1012.71
2018-11-23T09:36:12.273Z,1012.65
2018-11-23T09:37:12.303Z,1012.63
2018-11-23T09:38:12.334Z,1012.69
2018-11-23T09:39:12.363Z,1012.63
2018-11-23T09:40:12.394Z,1012.61
2018-11-23T09:41:12.425Z,1012.65
2018-11-23T09:42:12.456Z,1012.70
2018-11-23T09:43:12.486Z,1012.68
2018-11-23T09:44:12.518Z,1012.68
2018-11-23T09:45:12.549Z,1012.68
2018-11-23T09:46:12.583Z,1012.64
2018-11-23T09:47:12.617Z,1012.71
2018-11-23T09:48:12.642Z,1012.68
2018-11-23T09:49:12.850Z,1012.73
2018-11-23T09:50:12.707Z,1012.66
2018-11-23T09:51:12.737Z,1012.49
2018-11-23T09:52:12.772Z,1012.34
2018-11-23T09:53:12.807Z,1012.19
2018-11-23T09:54:12.832Z,1012.11
2018-11-23T09:55:12.864Z,1012.11
2018-11-23T09:56:12.898Z,1012.13
2018-11-23T09:57:12.928Z,1012.09
2018-11-23T09:58:12.959Z,1012.10
2018-11-23T09:59:12.987Z,1012.09
2018-11-23T10:00:13.017Z,1012.08
2018-11-23T10:01:13.048Z,1012.12
2018-11-23T10:02:13.077Z,1012.09
2018-11-23T10:03:13.107Z,1012.02
2018-11-23T10:04:13.135Z,1012.05
2018-11-23T10:05:13.169Z,1012.04
2018-11-23T10:06:13.196Z,1012.04
2018-11-23T10:07:13.224Z,1012.10
2018-11-23T10:08:13.251Z,1012.00
2018-11-23T10:09:13.279Z,1012.01
2018-11-23T10:10:13.309Z,1011.96
2018-11-23T10:11:13.335Z,1011.98
2018-11-23T10:12:13.363Z,1011.98
2018-11-23T10:13:13.392Z,1012.05
2018-11-23T10:14:13.419Z,1012.03
2018-11-23T10:15:13.445Z,1012.04
2018-11-23T10:16:13.473Z,1012.02
2018-11-23T10:17:13.501Z,1012.07
2018-11-23T10:18:13.528Z,1012.04
2018-11-23T10:19:13.555Z,1012.13
2018-11-23T10:20:13.581Z,1012.06
2018-11-23T10:21:13.608Z,1012.02
2018-11-23T10:22:13.635Z,1012.07
2018-11-23T10:23:13.663Z,1012.02
2018-11-23T10:24:13.704Z,1012.07
2018-11-23T10:25:13.721Z,1012.00
2018-11-23T10:26:13.740Z,1012.04
2018-11-23T10:27:13.782Z,1011.99
2018-11-23T10:28:13.793Z,1011.99
2018-11-23T10:29:13.819Z,1011.92
2018-11-23T10:30:13.845Z,1011.94
2018-11-23T10:31:13.877Z,1011.93
2018-11-23T10:32:13.905Z,1011.87
2018-11-23T10:33:13.923Z,1011.93
2018-11-23T10:34:13.949Z,1011.95
2018-11-23T10:35:13.978Z,1011.89
2018-11-23T10:36:14.006Z,1011.93
2018-11-23T10:37:14.029Z,1011.89
2018-11-23T10:38:14.055Z,1011.85
2018-11-23T10:39:14.079Z,1011.80
2018-11-23T10:40:14.105Z,1011.82
2018-11-23T10:41:14.131Z,1011.80
2018-11-23T10:42:14.158Z,1011.79
2018-11-23T10:43:14.268Z,1011.75
2018-11-23T10:44:14.211Z,1011.68
2018-11-23T10:45:14.235Z,1011.68
2018-11-23T10:46:14.262Z,1011.66
2018-11-23T10:47:14.288Z,1011.63
2018-11-23T10:48:14.314Z,1011.64
2018-11-23T10:49:14.339Z,1011.63
2018-11-23T10:50:14.366Z,1011.59
2018-11-23T10:51:14.390Z,1011.54
2018-11-23T10:52:14.416Z,1011.59
2018-11-23T10:53:14.441Z,1011.52
2018-11-23T10:54:14.468Z,1011.54
2018-11-23T10:55:14.492Z,1011.51
2018-11-23T10:56:14.518Z,1011.55
2018-11-23T10:57:14.543Z,1011.56
2018-11-23T10:58:14.572Z,1011.54
2018-11-23T10:59:14.593Z,1011.58
2018-11-23T11:00:14.619Z,1011.54
2018-11-23T11:01:14.644Z,1011.56
2018-11-23T11:02:14.669Z,1011.56
2018-11-23T11:03:14.694Z,1011.57
2018-11-23T11:04:14.719Z,1011.60
2018-11-23T11:05:14.744Z,1011.61
2018-11-23T11:06:14.769Z,1011.66
2018-11-23T11:07:14.793Z,1011.68
2018-11-23T11:08:14.819Z,1011.66
2018-11-23T11:09:14.844Z,1011.64
2018-11-23T11:10:14.869Z,1011.62
2018-11-23T11:11:14.901Z,1011.60
2018-11-23T11:12:14.918Z,1011.64
2018-11-23T11:13:14.944Z,1011.58
2018-11-23T11:14:14.968Z,1011.60
2018-11-23T11:15:14.994Z,1011.57
2018-11-23T11:16:15.019Z,1011.57
2018-11-23T11:17:15.043Z,1011.57
2018-11-23T11:18:15.070Z,1011.56
2018-11-23T11:19:15.096Z,1011.55
2018-11-23T11:20:15.119Z,1011.50
2018-11-23T11:21:15.145Z,1011.48
2018-11-23T11:22:15.170Z,1011.54
2018-11-23T11:23:15.195Z,1011.56
2018-11-23T11:24:15.220Z,1011.58
2018-11-23T11:25:15.245Z,1011.63
2018-11-23T11:26:15.275Z,1011.62
2018-11-23T11:27:15.297Z,1011.67
2018-11-23T11:28:15.324Z,1011.75
2018-11-23T11:29:15.350Z,1011.75
2018-11-23T11:30:15.378Z,1011.83
2018-11-23T11:31:15.405Z,1011.84
2018-11-23T11:32:15.431Z,1011.87
2018-11-23T11:33:15.460Z,1011.82
2018-11-23T11:34:15.488Z,1011.40
2018-11-23T11:35:15.514Z,1011.27
2018-11-23T11:36:15.542Z,1011.19
2018-11-23T11:37:15.571Z,1011.21
2018-11-23T11:38:15.609Z,1011.21
2018-11-23T11:39:18.086Z,1011.29
2018-11-23T11:40:15.654Z,1011.69
2018-11-23T11:41:15.682Z,1012.01
2018-11-23T11:42:15.709Z,1011.99
2018-11-23T11:43:15.737Z,1011.97
2018-11-23T11:44:15.764Z,1012.00
2018-11-23T11:45:15.792Z,1011.97
2018-11-23T11:46:15.822Z,1012.00
2018-11-23T11:47:15.849Z,1011.96
2018-11-23T11:48:15.877Z,1011.98
2018-11-23T11:49:15.905Z,1012.01
2018-11-23T11:50:15.934Z,1012.00
2018-11-23T11:51:17.688Z,1012.02
2018-11-23T11:52:19.220Z,1012.03
2018-11-23T11:53:16.024Z,1012.00
2018-11-23T11:54:16.047Z,1011.95
2018-11-23T11:55:16.075Z,1011.97
2018-11-23T11:56:16.105Z,1011.95
2018-11-23T11:57:16.135Z,1011.94
2018-11-23T11:58:16.168Z,1011.95
2018-11-23T11:59:16.192Z,1011.93
2018-11-23T12:00:16.224Z,1011.92
2018-11-23T12:01:16.253Z,1011.92
2018-11-23T12:02:16.284Z,1011.95
2018-11-23T12:03:16.317Z,1011.93
2018-11-23T12:04:16.346Z,1011.96
2018-11-23T12:05:16.378Z,1011.95
2018-11-23T12:06:16.405Z,1011.95